Chicago, IL (60611)

5:35 PM CDT on August 22, 2014 (GMT -0500)
West Loop - Old St. Pats | Change Station
CLOSE
Current Station
Personal Weather Station
Location: Chicago, IL
Elevation: 548 ft
Nearby Weather Stations

Elev 548 ft 41.88 °N, 87.64 °W | Updated 48 seconds ago

Mostly Cloudy
Mostly Cloudy
83.2 °F
Feels Like 91 °F
N
2.0
Wind Variable Wind from ESE
Gusts 3.0 mph

Today
High -- | Low -- °F
--% Chance of Precip.
Yesterday
High -- | Low -- °F
Precip. -- in
6:05 AM 7:40 PM
Waning Crescent, 6% visible
Pressure 29.89 in
Visibility 10.0 miles
Clouds Few 2000 ft
Scattered Clouds 3200 ft
Mostly Cloudy 30000 ft
Heat Index 91 °F
Dew Point 75 °F
Humidity 76%
Rainfall 0.64 in
Snow Depth Not available.
UV 2 out of 12
Pollen 5.80 out of 12
Ozone Good
PM2.5 Good
Flu Activity Not available.
METAR KMDW 222151Z 27008KT 10SM FEW020 SCT032 BKN300 30/22 A2993 RMK AO2 SLP122 T03000222

More Conditions Fewer Conditions

Pressure 29.89 in
Visibility 10.0 miles
Clouds Few 2000 ft
Scattered Clouds 3200 ft
Mostly Cloudy 30000 ft
Heat Index 91 °F
Dew Point 75 °F
Humidity 76%
Rainfall 0.64 in
Snow Depth Not available.
UV 2 out of 12
Pollen 5.80 out of 12
Ozone Good
PM2.5 Good
Flu Activity Not available.
METAR KMDW 222151Z 27008KT 10SM FEW020 SCT032 BKN300 30/22 A2993 RMK AO2 SLP122 T03000222

More Conditions Fewer Conditions

10-Day Weather Forecast

Almanac

Astronomy

Aug. 22, 2014 Rise Set
Actual Time 6:05 AM CDT 7:40 PM CDT
Civil Twilight 5:36 AM CDT 8:09 PM CDT
Nautical Twilight 5:00 AM CDT 8:44 PM CDT
Astronomical Twilight 4:22 AM CDT 9:22 PM CDT
Moon 3:27 AM CDT 5:49 PM CDT
Length of Visible Light 14h 32m
Length of Day
13h 34m
Tomorrow will be 2m 37s shorter.
Waning Crescent, 6% of the Moon is Illuminated
Today
Waning Crescent
Aug 25
New
Sep 2
First Quarter
Sep 8
Full
Sep 15
Last Quarter

Today's Extremes

State Highs State Lows

Community

WunderPhotos

Upload Photos

1,746,274 photos uploaded!

WunderBlogs® & News

By Dr. Jeff Masters
Director of Meteorology, Weather Underground
By Kari Strenfel
Meteorologist, Weather Underground
By Christopher C. Burt
Weather Historian, Weather Underground
August 22, 2014
August 22, 2014
August 22, 2014

Nearby

Air Quality

  Air Quality AQ Index Pollutant
Yesterday Moderate
PM2.5
Yesterday Good
OZONE
Current Good
OZONE
Current Good
PM2.5
Friday Moderate
OZONE
Friday Moderate
PM2.5
Saturday Moderate
OZONE
Saturday Moderate
PM2.5
Sunday Moderate
OZONE
Sunday Moderate
PM2.5
Monday Moderate
OZONE
Monday Moderate
PM2.5

Snow Depth

Station Depth Elevation
No new snow has been reported.

Earthquake Activity

City Distance Mag. Time & Date
No recent earthquake activity has been reported nearby.
Minimum magnitude displayed is 2.5.

Coastal Water Temperatures

Place Temperature
No Stations Reporting

Nearby Weather Stations